createdAt,value
2022-12-03T00:07:52.977Z,2.03
2022-12-03T00:18:16.598Z,1.96
2022-12-03T00:23:19.319Z,1.89
2022-12-03T00:28:23.342Z,1.86
2022-12-03T00:33:32.065Z,1.84
2022-12-03T00:38:35.816Z,1.82
2022-12-03T00:43:40.001Z,1.83
2022-12-03T00:48:48.953Z,1.84
2022-12-03T00:59:12.481Z,1.84
2022-12-03T01:04:17.571Z,1.76
2022-12-03T01:09:20.406Z,1.72
2022-12-03T01:14:28.645Z,1.70
2022-12-03T01:24:59.547Z,1.77
2022-12-03T01:30:02.535Z,1.72
2022-12-03T01:35:06.373Z,1.75
2022-12-03T01:40:20.660Z,1.77
2022-12-03T01:50:50.561Z,1.87
2022-12-03T01:55:54.413Z,1.83
2022-12-03T02:00:59.180Z,1.85
2022-12-03T02:06:10.426Z,1.90
2022-12-03T02:11:23.466Z,1.92
2022-12-03T02:16:26.515Z,1.96
2022-12-03T02:21:49.563Z,2.00
2022-12-03T02:26:57.661Z,2.05
2022-12-03T02:32:00.652Z,2.10
2022-12-03T02:42:34.084Z,2.17
2022-12-03T02:58:30.858Z,2.24
2022-12-03T03:03:34.555Z,2.19
2022-12-03T03:08:40.221Z,2.20
2022-12-03T03:13:48.750Z,2.21
2022-12-03T03:18:52.363Z,2.22
2022-12-03T03:23:55.387Z,2.23
2022-12-03T03:29:03.496Z,2.28
2022-12-03T03:39:29.349Z,2.42
2022-12-03T03:49:54.948Z,2.51
2022-12-03T03:54:58.043Z,2.45
2022-12-03T04:15:49.871Z,2.54
2022-12-03T04:20:53.319Z,2.55
2022-12-03T04:31:31.570Z,2.64
2022-12-03T04:36:34.993Z,2.58
2022-12-03T04:41:37.795Z,2.57
2022-12-03T04:46:46.120Z,2.55
2022-12-03T04:51:48.912Z,2.55
2022-12-03T04:56:51.811Z,2.55
2022-12-03T05:02:01.012Z,2.56
2022-12-03T05:07:03.824Z,2.57
2022-12-03T05:12:07.078Z,2.55
2022-12-03T05:17:15.333Z,2.52
2022-12-03T05:22:18.109Z,2.52
2022-12-03T05:27:23.876Z,2.52
2022-12-03T05:32:33.264Z,2.51
2022-12-03T05:37:37.035Z,2.51
2022-12-03T05:42:40.142Z,2.53
2022-12-03T05:47:48.267Z,2.54
2022-12-03T05:52:53.560Z,2.53
2022-12-03T05:57:57.516Z,2.50
2022-12-03T06:03:07.234Z,2.47
2022-12-03T06:08:10.285Z,2.47
2022-12-03T06:13:13.079Z,2.41
2022-12-03T06:18:21.233Z,2.38
2022-12-03T06:23:24.208Z,2.33
2022-12-03T06:28:27.121Z,2.26
2022-12-03T07:00:17.773Z,2.25
2022-12-03T07:05:20.585Z,2.17
2022-12-03T07:10:23.828Z,2.16
2022-12-03T07:15:32.230Z,2.15
2022-12-03T07:31:17.540Z,2.19
2022-12-03T07:41:46.827Z,2.18
2022-12-03T07:46:50.889Z,2.12
2022-12-03T07:51:53.964Z,2.14
2022-12-03T07:57:04.054Z,2.13
2022-12-03T08:02:07.359Z,2.14
2022-12-03T08:07:10.145Z,2.14
2022-12-03T08:12:25.632Z,2.14
2022-12-03T08:17:29.664Z,2.18
2022-12-03T08:22:32.476Z,2.19
2022-12-03T08:27:40.599Z,2.20
2022-12-03T08:38:15.066Z,2.31
2022-12-03T08:43:24.464Z,2.24
2022-12-03T08:48:34.559Z,2.26
2022-12-03T08:53:45.070Z,2.28
2022-12-03T09:25:41.315Z,2.35
2022-12-03T09:30:44.531Z,2.37
2022-12-03T09:35:47.351Z,2.43
2022-12-03T09:40:56.565Z,2.48
2022-12-03T09:51:26.661Z,2.65
2022-12-03T09:56:29.669Z,2.61
2022-12-03T10:01:32.766Z,2.63
2022-12-03T10:06:45.780Z,2.68
2022-12-03T10:11:49.324Z,2.70
2022-12-03T10:16:52.890Z,2.70
2022-12-03T10:22:04.743Z,2.66
2022-12-03T10:27:23.269Z,2.66
2022-12-03T10:32:27.814Z,2.66
2022-12-03T10:37:36.047Z,2.61
2022-12-03T10:48:19.274Z,2.56
2022-12-03T10:53:24.500Z,2.45
2022-12-03T11:15:16.410Z,2.53
2022-12-03T11:26:56.912Z,2.43
2022-12-03T11:37:37.220Z,2.37
2022-12-03T11:42:41.615Z,2.32
2022-12-03T11:47:48.083Z,2.31
2022-12-03T11:53:02.870Z,2.31
2022-12-03T12:03:45.212Z,2.32
2022-12-03T12:08:57.441Z,2.20
2022-12-03T12:14:01.674Z,2.19
2022-12-03T12:19:34.501Z,2.20
2022-12-03T12:24:49.279Z,2.24
2022-12-03T12:30:01.887Z,2.19
2022-12-03T12:40:42.900Z,2.14
2022-12-03T12:51:23.160Z,2.07
2022-12-03T12:56:28.566Z,2.03
2022-12-03T13:01:34.405Z,2.00
2022-12-03T13:06:45.122Z,2.01
2022-12-03T13:17:25.085Z,2.08
2022-12-03T13:33:21.632Z,1.81
2022-12-03T13:38:25.420Z,1.66
2022-12-03T13:43:33.273Z,1.60
2022-12-03T13:48:41.423Z,1.57
2022-12-03T13:59:25.836Z,1.62
2022-12-03T14:04:35.402Z,1.52
2022-12-03T14:20:33.448Z,1.53
2022-12-03T14:25:38.500Z,1.44
2022-12-03T14:41:26.701Z,1.49
2022-12-03T14:46:29.605Z,1.38
2022-12-03T15:07:51.234Z,1.32
2022-12-03T15:18:19.650Z,1.37
2022-12-03T15:23:22.372Z,1.28
2022-12-03T15:28:26.206Z,1.28
2022-12-03T15:33:34.400Z,1.29
2022-12-03T15:38:37.420Z,1.29
2022-12-03T15:43:40.237Z,1.27
2022-12-03T15:48:49.948Z,1.22
2022-12-03T15:53:52.932Z,1.17
2022-12-03T15:58:55.744Z,1.11
2022-12-03T16:04:04.685Z,1.11
2022-12-03T16:14:47.679Z,1.19
2022-12-03T16:19:57.066Z,1.14
2022-12-03T16:24:59.885Z,1.15
2022-12-03T16:30:03.268Z,1.12
2022-12-03T16:45:57.836Z,1.12
2022-12-03T16:51:00.713Z,1.10
2022-12-03T16:56:04.100Z,1.09
2022-12-03T17:01:14.183Z,1.07
2022-12-03T17:06:17.081Z,1.09
2022-12-03T17:11:20.514Z,1.08
2022-12-03T17:16:28.908Z,1.09
2022-12-03T17:21:34.944Z,1.10
2022-12-03T17:26:38.112Z,1.07
2022-12-03T17:31:46.510Z,1.05
2022-12-03T17:42:15.818Z,1.08
2022-12-03T17:52:41.462Z,1.03
2022-12-03T17:57:47.553Z,0.94
2022-12-03T18:02:50.507Z,0.93
2022-12-03T18:07:59.589Z,0.95
2022-12-03T18:34:39.244Z,1.05
2022-12-03T18:39:46.189Z,1.02
2022-12-03T19:00:59.029Z,1.15
2022-12-03T19:11:27.290Z,1.17
2022-12-03T19:16:31.316Z,1.09
2022-12-03T19:21:34.244Z,1.08
2022-12-03T19:26:42.564Z,1.08
2022-12-03T19:31:45.396Z,1.10
2022-12-03T19:47:27.383Z,1.16
2022-12-03T19:52:38.039Z,1.09
2022-12-03T19:57:41.586Z,1.07
2022-12-03T20:02:50.364Z,1.06
2022-12-03T20:13:18.123Z,1.11
2022-12-03T20:34:05.966Z,1.10
2022-12-03T20:39:11.473Z,1.01
2022-12-03T20:44:14.468Z,1.00
2022-12-03T20:49:22.696Z,0.99
2022-12-03T20:54:25.493Z,1.00
2022-12-03T20:59:29.149Z,1.02
2022-12-03T21:04:38.843Z,1.07
2022-12-03T21:09:42.681Z,1.07
2022-12-03T21:14:46.955Z,1.07
2022-12-03T21:25:22.004Z,1.16
2022-12-03T21:30:25.242Z,1.07
2022-12-03T21:41:02.448Z,1.11
2022-12-03T21:51:26.986Z,1.14
2022-12-03T21:56:30.115Z,1.07
2022-12-03T22:01:34.410Z,1.03
2022-12-03T22:06:42.759Z,1.03
2022-12-03T22:11:45.567Z,1.05
2022-12-03T22:16:48.342Z,1.05
2022-12-03T22:21:56.479Z,1.08
2022-12-03T22:26:59.231Z,1.12
2022-12-03T22:32:03.190Z,1.14
2022-12-03T22:37:11.450Z,1.16
2022-12-03T22:42:14.833Z,1.16
2022-12-03T22:47:18.849Z,1.15
2022-12-03T22:52:27.386Z,1.17
2022-12-03T22:57:30.379Z,1.19
2022-12-03T23:02:33.245Z,1.19
2022-12-03T23:13:02.841Z,1.24
2022-12-03T23:18:05.912Z,1.15
2022-12-03T23:23:08.707Z,1.14
2022-12-03T23:28:16.872Z,1.11
2022-12-03T23:33:20.070Z,1.08
2022-12-03T23:54:34.025Z,1.11
2022-12-03T23:59:37.702Z,1.03
